sensor_id;sensor_type;location;lat;lon;timestamp;pressure;altitude;pressure_sealevel;temperature;humidity
83512;BME280;73446;0.000;0.000;2024-02-04T00:00:47;99902.72;;;21.38;31.23
83512;BME280;73446;0.000;0.000;2024-02-04T00:03:31;99890.44;;;21.37;31.35
83512;BME280;73446;0.000;0.000;2024-02-04T00:06:15;99877.06;;;21.37;31.46
83512;BME280;73446;0.000;0.000;2024-02-04T00:08:59;99863.09;;;21.29;31.91
83512;BME280;73446;0.000;0.000;2024-02-04T00:11:43;99856.91;;;21.24;32.34
83512;BME280;73446;0.000;0.000;2024-02-04T00:14:27;99858.22;;;21.21;32.53
83512;BME280;73446;0.000;0.000;2024-02-04T00:17:11;99845.97;;;21.25;32.51
83512;BME280;73446;0.000;0.000;2024-02-04T00:19:56;99836.34;;;21.29;31.84
83512;BME280;73446;0.000;0.000;2024-02-04T00:22:40;99830.50;;;21.33;31.65
83512;BME280;73446;0.000;0.000;2024-02-04T00:25:24;99845.22;;;21.35;31.41
83512;BME280;73446;0.000;0.000;2024-02-04T00:28:08;99835.34;;;21.36;31.49
83512;BME280;73446;0.000;0.000;2024-02-04T00:30:55;99830.25;;;21.34;31.46
83512;BME280;73446;0.000;0.000;2024-02-04T00:33:41;99833.16;;;21.33;31.57
83512;BME280;73446;0.000;0.000;2024-02-04T00:36:25;99825.16;;;21.33;31.44
83512;BME280;73446;0.000;0.000;2024-02-04T00:39:09;99831.31;;;21.33;31.47
83512;BME280;73446;0.000;0.000;2024-02-04T00:41:53;99835.84;;;21.33;31.39
83512;BME280;73446;0.000;0.000;2024-02-04T00:44:38;99831.31;;;21.33;31.38
83512;BME280;73446;0.000;0.000;2024-02-04T00:47:22;99823.03;;;21.35;31.58
83512;BME280;73446;0.000;0.000;2024-02-04T00:50:06;99824.63;;;21.36;31.25
83512;BME280;73446;0.000;0.000;2024-02-04T00:52:51;99829.72;;;21.37;31.08
83512;BME280;73446;0.000;0.000;2024-02-04T00:55:37;99827.88;;;21.38;31.07
83512;BME280;73446;0.000;0.000;2024-02-04T00:58:21;99825.19;;;21.38;30.97
83512;BME280;73446;0.000;0.000;2024-02-04T01:01:05;99844.72;;;21.38;31.08
83512;BME280;73446;0.000;0.000;2024-02-04T01:03:49;99835.63;;;21.39;31.04
83512;BME280;73446;0.000;0.000;2024-02-04T01:06:33;99831.91;;;21.40;30.98
83512;BME280;73446;0.000;0.000;2024-02-04T01:09:17;99823.88;;;21.40;30.77
83512;BME280;73446;0.000;0.000;2024-02-04T01:12:01;99825.75;;;21.40;30.95
83512;BME280;73446;0.000;0.000;2024-02-04T01:14:45;99826.56;;;21.40;30.77
83512;BME280;73446;0.000;0.000;2024-02-04T01:17:30;99822.00;;;21.41;30.63
83512;BME280;73446;0.000;0.000;2024-02-04T01:20:14;99822.81;;;21.41;30.83
83512;BME280;73446;0.000;0.000;2024-02-04T01:22:58;99828.97;;;21.42;30.70
83512;BME280;73446;0.000;0.000;2024-02-04T01:25:43;99831.34;;;21.43;30.64
83512;BME280;73446;0.000;0.000;2024-02-04T01:28:27;99832.44;;;21.42;30.57
83512;BME280;73446;0.000;0.000;2024-02-04T01:31:11;99830.59;;;21.43;30.44
83512;BME280;73446;0.000;0.000;2024-02-04T01:33:55;99834.31;;;21.42;30.72
83512;BME280;73446;0.000;0.000;2024-02-04T01:36:39;99819.81;;;21.33;31.39
83512;BME280;73446;0.000;0.000;2024-02-04T01:39:23;99824.59;;;21.25;31.97
83512;BME280;73446;0.000;0.000;2024-02-04T01:42:07;99811.22;;;21.25;32.46
83512;BME280;73446;0.000;0.000;2024-02-04T01:44:51;99820.59;;;21.33;31.53
83512;BME280;73446;0.000;0.000;2024-02-04T01:47:38;99827.06;;;21.37;31.10
83512;BME280;73446;0.000;0.000;2024-02-04T01:50:23;99822.53;;;21.38;30.92
83512;BME280;73446;0.000;0.000;2024-02-04T01:53:07;99833.75;;;21.40;30.94
83512;BME280;73446;0.000;0.000;2024-02-04T01:55:51;99831.91;;;21.40;30.64
83512;BME280;73446;0.000;0.000;2024-02-04T01:58:35;99831.91;;;21.40;30.55
83512;BME280;73446;0.000;0.000;2024-02-04T02:01:20;99833.75;;;21.40;30.47
83512;BME280;73446;0.000;0.000;2024-02-04T02:04:04;99844.47;;;21.40;30.56
83512;BME280;73446;0.000;0.000;2024-02-04T02:06:49;99832.72;;;21.41;30.48
83512;BME280;73446;0.000;0.000;2024-02-04T02:09:33;99837.00;;;21.42;30.33
83512;BME280;73446;0.000;0.000;2024-02-04T02:12:21;99832.72;;;21.41;30.47
83512;BME280;73446;0.000;0.000;2024-02-04T02:15:18;99831.91;;;21.40;30.44
83512;BME280;73446;0.000;0.000;2024-02-04T02:18:09;99822.25;;;21.39;30.54
83512;BME280;73446;0.000;0.000;2024-02-04T02:26:55;99828.13;;;21.36;30.52
83512;BME280;73446;0.000;0.000;2024-02-04T02:29:42;99834.81;;;21.39;30.25
83512;BME280;73446;0.000;0.000;2024-02-04T02:32:26;99819.59;;;21.39;30.45
83512;BME280;73446;0.000;0.000;2024-02-04T02:35:12;99813.19;;;21.40;30.34
83512;BME280;73446;0.000;0.000;2024-02-04T02:38:25;99812.94;;;21.42;30.42
83512;BME280;73446;0.000;0.000;2024-02-04T02:41:08;99812.94;;;21.42;30.29
83512;BME280;73446;0.000;0.000;2024-02-04T02:43:54;99802.22;;;21.42;30.42
83512;BME280;73446;0.000;0.000;2024-02-04T02:46:38;99798.50;;;21.43;30.13
83512;BME280;73446;0.000;0.000;2024-02-04T02:49:22;99790.47;;;21.43;29.97
83512;BME280;73446;0.000;0.000;2024-02-04T02:52:06;99787.78;;;21.43;30.31
83512;BME280;73446;0.000;0.000;2024-02-04T02:54:50;99793.91;;;21.43;30.29
83512;BME280;73446;0.000;0.000;2024-02-04T02:57:35;99779.50;;;21.44;30.22
83512;BME280;73446;0.000;0.000;2024-02-04T03:00:19;99789.13;;;21.45;30.08
83512;BME280;73446;0.000;0.000;2024-02-04T03:03:04;99786.69;;;21.39;30.44
83512;BME280;73446;0.000;0.000;2024-02-04T03:05:47;99788.22;;;21.29;31.28
83512;BME280;73446;0.000;0.000;2024-02-04T03:08:31;99784.72;;;21.24;31.49
83512;BME280;73446;0.000;0.000;2024-02-04T03:11:15;99768.44;;;21.30;31.13
83512;BME280;73446;0.000;0.000;2024-02-04T03:13:59;99762.34;;;21.35;30.99
83512;BME280;73446;0.000;0.000;2024-02-04T03:16:44;99759.97;;;21.39;30.56
83512;BME280;73446;0.000;0.000;2024-02-04T03:19:29;99755.41;;;21.39;30.47
83512;BME280;73446;0.000;0.000;2024-02-04T03:22:13;99753.28;;;21.41;30.37
83512;BME280;73446;0.000;0.000;2024-02-04T03:24:57;99755.16;;;21.41;30.29
83512;BME280;73446;0.000;0.000;2024-02-04T03:27:40;99756.78;;;21.42;30.17
83512;BME280;73446;0.000;0.000;2024-02-04T03:30:24;99742.59;;;21.41;30.29
83512;BME280;73446;0.000;0.000;2024-02-04T03:33:08;99751.69;;;21.40;30.40
83512;BME280;73446;0.000;0.000;2024-02-04T03:35:52;99748.75;;;21.42;30.24
83512;BME280;73446;0.000;0.000;2024-02-04T03:38:36;99730.84;;;21.42;30.28
83512;BME280;73446;0.000;0.000;2024-02-04T03:41:20;99730.03;;;21.42;30.36
83512;BME280;73446;0.000;0.000;2024-02-04T03:44:04;99732.69;;;21.42;30.19
83512;BME280;73446;0.000;0.000;2024-02-04T03:46:49;99730.84;;;21.42;30.28
83512;BME280;73446;0.000;0.000;2024-02-04T03:49:34;99725.50;;;21.42;30.32
83512;BME280;73446;0.000;0.000;2024-02-04T03:52:17;99746.59;;;21.44;30.25
83512;BME280;73446;0.000;0.000;2024-02-04T03:55:02;99738.56;;;21.44;30.19
83512;BME280;73446;0.000;0.000;2024-02-04T03:57:46;99737.50;;;21.45;30.19
83512;BME280;73446;0.000;0.000;2024-02-04T04:00:31;99742.84;;;21.45;30.37
83512;BME280;73446;0.000;0.000;2024-02-04T04:03:15;99761.56;;;21.45;30.42
83512;BME280;73446;0.000;0.000;2024-02-04T04:05:59;99752.75;;;21.44;30.22
83512;BME280;73446;0.000;0.000;2024-02-04T04:08:43;99744.47;;;21.46;30.45
83512;BME280;73446;0.000;0.000;2024-02-04T04:11:27;99731.09;;;21.46;30.37
83512;BME280;73446;0.000;0.000;2024-02-04T04:14:11;99748.19;;;21.45;30.50
83512;BME280;73446;0.000;0.000;2024-02-04T04:16:55;99742.59;;;21.46;30.31
83512;BME280;73446;0.000;0.000;2024-02-04T04:19:39;99745.28;;;21.46;30.44
83512;BME280;73446;0.000;0.000;2024-02-04T04:22:23;99730.03;;;21.47;30.45
83512;BME280;73446;0.000;0.000;2024-02-04T04:25:08;99746.06;;;21.47;30.34
83512;BME280;73446;0.000;0.000;2024-02-04T04:27:53;99759.44;;;21.47;30.28
83512;BME280;73446;0.000;0.000;2024-02-04T04:30:36;99772.25;;;21.40;30.79
83512;BME280;73446;0.000;0.000;2024-02-04T04:33:20;99769.25;;;21.31;31.29
83512;BME280;73446;0.000;0.000;2024-02-04T04:36:04;99772.72;;;21.26;31.94
83512;BME280;73446;0.000;0.000;2024-02-04T04:38:48;99767.94;;;21.34;31.43
83512;BME280;73446;0.000;0.000;2024-02-04T04:41:34;99770.66;;;21.39;30.96
83512;BME280;73446;0.000;0.000;2024-02-04T04:44:19;99760.25;;;21.42;30.68
83512;BME280;73446;0.000;0.000;2024-02-04T04:47:03;99770.13;;;21.42;30.66
83512;BME280;73446;0.000;0.000;2024-02-04T04:49:48;99755.72;;;21.43;30.46
83512;BME280;73446;0.000;0.000;2024-02-04T04:52:32;99753.81;;;21.43;30.32
83512;BME280;73446;0.000;0.000;2024-02-04T04:55:17;99745.00;;;21.43;30.27
83512;BME280;73446;0.000;0.000;2024-02-04T04:58:01;99765.31;;;21.44;30.29
83512;BME280;73446;0.000;0.000;2024-02-04T05:00:45;99761.84;;;21.43;30.22
83512;BME280;73446;0.000;0.000;2024-02-04T05:03:29;99780.28;;;21.45;30.01
83512;BME280;73446;0.000;0.000;2024-02-04T05:06:13;99777.63;;;21.45;30.17
83512;BME280;73446;0.000;0.000;2024-02-04T05:08:57;99770.41;;;21.45;30.12
83512;BME280;73446;0.000;0.000;2024-02-04T05:11:41;99782.16;;;21.44;30.12
83512;BME280;73446;0.000;0.000;2024-02-04T05:14:25;99770.41;;;21.45;30.03
83512;BME280;73446;0.000;0.000;2024-02-04T05:17:09;99766.66;;;21.46;30.10
83512;BME280;73446;0.000;0.000;2024-02-04T05:19:53;99760.50;;;21.46;29.99
83512;BME280;73446;0.000;0.000;2024-02-04T05:22:38;99774.94;;;21.45;30.05
83512;BME280;73446;0.000;0.000;2024-02-04T05:25:22;99772.81;;;21.47;29.98
83512;BME280;73446;0.000;0.000;2024-02-04T05:28:06;99778.16;;;21.47;30.18
83512;BME280;73446;0.000;0.000;2024-02-04T05:30:50;99765.88;;;21.46;29.82
83512;BME280;73446;0.000;0.000;2024-02-04T05:33:34;99782.47;;;21.48;29.86
83512;BME280;73446;0.000;0.000;2024-02-04T05:36:18;99785.13;;;21.48;29.96
83512;BME280;73446;0.000;0.000;2024-02-04T05:39:09;99769.09;;;21.48;29.80
83512;BME280;73446;0.000;0.000;2024-02-04T05:41:54;99766.41;;;21.48;29.94
83512;BME280;73446;0.000;0.000;2024-02-04T05:44:38;99773.38;;;21.49;29.88
83512;BME280;73446;0.000;0.000;2024-02-04T05:47:22;99783.00;;;21.50;29.88
83512;BME280;73446;0.000;0.000;2024-02-04T05:50:06;99776.03;;;21.49;29.88
83512;BME280;73446;0.000;0.000;2024-02-04T05:52:51;99766.16;;;21.49;29.85
83512;BME280;73446;0.000;0.000;2024-02-04T05:55:35;99772.31;;;21.50;29.87
83512;BME280;73446;0.000;0.000;2024-02-04T05:58:19;99783.00;;;21.50;29.86
83512;BME280;73446;0.000;0.000;2024-02-04T06:01:03;99784.56;;;21.41;30.34
83512;BME280;73446;0.000;0.000;2024-02-04T06:03:47;99788.78;;;21.32;31.06
83512;BME280;73446;0.000;0.000;2024-02-04T06:06:31;99791.44;;;21.32;31.49
83512;BME280;73446;0.000;0.000;2024-02-04T06:09:15;99777.06;;;21.38;30.59
83512;BME280;73446;0.000;0.000;2024-02-04T06:11:59;99787.78;;;21.43;30.30
83512;BME280;73446;0.000;0.000;2024-02-04T06:14:44;99784.03;;;21.44;30.13
83512;BME280;73446;0.000;0.000;2024-02-04T06:17:27;99788.31;;;21.45;30.18
83512;BME280;73446;0.000;0.000;2024-02-04T06:20:11;99796.09;;;21.46;30.09
83512;BME280;73446;0.000;0.000;2024-02-04T06:22:55;99810.25;;;21.47;29.86
83512;BME280;73446;0.000;0.000;2024-02-04T06:25:41;99805.97;;;21.46;29.95
83512;BME280;73446;0.000;0.000;2024-02-04T06:28:25;99815.59;;;21.47;30.13
83512;BME280;73446;0.000;0.000;2024-02-04T06:31:09;99818.28;;;21.47;29.95
83512;BME280;73446;0.000;0.000;2024-02-04T06:33:53;99804.91;;;21.47;29.95
83512;BME280;73446;0.000;0.000;2024-02-04T06:36:37;99812.94;;;21.47;29.85
83512;BME280;73446;0.000;0.000;2024-02-04T06:39:21;99812.94;;;21.47;29.88
83512;BME280;73446;0.000;0.000;2024-02-04T06:42:05;99816.41;;;21.47;29.82
83512;BME280;73446;0.000;0.000;2024-02-04T06:44:49;99819.91;;;21.48;29.85
83512;BME280;73446;0.000;0.000;2024-02-04T06:47:33;99813.75;;;21.47;31.17
83512;BME280;73446;0.000;0.000;2024-02-04T06:50:17;99803.84;;;21.48;30.96
83512;BME280;73446;0.000;0.000;2024-02-04T06:53:02;99807.63;;;21.52;31.67
83512;BME280;73446;0.000;0.000;2024-02-04T06:55:46;99801.47;;;21.51;31.91
83512;BME280;73446;0.000;0.000;2024-02-04T06:58:30;99818.31;;;21.52;31.91
83512;BME280;73446;0.000;0.000;2024-02-04T07:01:14;99807.13;;;21.55;31.83
83512;BME280;73446;0.000;0.000;2024-02-04T07:03:58;99801.78;;;21.55;31.70
83512;BME280;73446;0.000;0.000;2024-02-04T07:06:42;99799.66;;;21.57;32.08
83512;BME280;73446;0.000;0.000;2024-02-04T07:09:27;99788.69;;;21.63;32.84
83512;BME280;73446;0.000;0.000;2024-02-04T07:12:11;99789.34;;;21.86;36.63
83512;BME280;73446;0.000;0.000;2024-02-04T07:14:55;99788.56;;;21.90;36.08
83512;BME280;73446;0.000;0.000;2024-02-04T07:17:40;99792.56;;;21.88;34.69
83512;BME280;73446;0.000;0.000;2024-02-04T07:20:24;99786.91;;;21.84;35.04
83512;BME280;73446;0.000;0.000;2024-02-04T07:23:09;99782.63;;;21.83;34.69
83512;BME280;73446;0.000;0.000;2024-02-04T07:25:53;99782.63;;;21.83;34.94
83512;BME280;73446;0.000;0.000;2024-02-04T07:28:37;99782.63;;;21.83;34.99
83512;BME280;73446;0.000;0.000;2024-02-04T07:31:21;99780.22;;;21.82;35.77
83512;BME280;73446;0.000;0.000;2024-02-04T07:34:06;99782.59;;;21.78;36.12
83512;BME280;73446;0.000;0.000;2024-02-04T07:36:50;99783.41;;;21.74;36.04
83512;BME280;73446;0.000;0.000;2024-02-04T07:39:36;99767.63;;;21.77;35.71
83512;BME280;73446;0.000;0.000;2024-02-04T07:42:20;99782.63;;;21.83;35.29
83512;BME280;73446;0.000;0.000;2024-02-04T07:45:07;99785.06;;;21.85;35.11
83512;BME280;73446;0.000;0.000;2024-02-04T07:47:52;99788.53;;;21.85;34.41
83512;BME280;73446;0.000;0.000;2024-02-04T07:50:36;99783.19;;;21.85;34.21
83512;BME280;73446;0.000;0.000;2024-02-04T07:53:20;99773.84;;;21.88;34.32
83512;BME280;73446;0.000;0.000;2024-02-04T07:56:05;99778.13;;;21.89;34.08
83512;BME280;73446;0.000;0.000;2024-02-04T07:58:56;99774.63;;;21.88;34.25
83512;BME280;73446;0.000;0.000;2024-02-04T08:01:41;99780.00;;;21.88;33.73
83512;BME280;73446;0.000;0.000;2024-02-04T08:04:25;99778.38;;;21.87;33.95
83512;BME280;73446;0.000;0.000;2024-02-04T08:07:09;99780.50;;;21.85;33.56
83512;BME280;73446;0.000;0.000;2024-02-04T08:09:53;99780.00;;;21.88;33.72
83512;BME280;73446;0.000;0.000;2024-02-04T08:12:37;99770.59;;;21.86;33.44
83512;BME280;73446;0.000;0.000;2024-02-04T08:15:22;99775.69;;;21.87;33.42
83512;BME280;73446;0.000;0.000;2024-02-04T08:18:06;99782.94;;;21.87;33.55
83512;BME280;73446;0.000;0.000;2024-02-04T08:20:50;99781.06;;;21.87;32.91
83512;BME280;73446;0.000;0.000;2024-02-04T08:23:35;99766.59;;;21.88;32.68
83512;BME280;73446;0.000;0.000;2024-02-04T08:26:20;99765.53;;;21.89;32.34
83512;BME280;73446;0.000;0.000;2024-02-04T08:29:04;99774.13;;;21.91;32.08
83512;BME280;73446;0.000;0.000;2024-02-04T08:31:48;99759.13;;;21.90;32.03
83512;BME280;73446;0.000;0.000;2024-02-04T08:34:32;99774.13;;;21.91;31.83
83512;BME280;73446;0.000;0.000;2024-02-04T08:37:16;99781.06;;;21.92;31.66
83512;BME280;73446;0.000;0.000;2024-02-04T08:40:01;99765.81;;;21.93;31.65
83512;BME280;73446;0.000;0.000;2024-02-04T08:42:46;99775.19;;;21.95;31.77
83512;BME280;73446;0.000;0.000;2024-02-04T08:45:30;99773.84;;;21.98;32.09
83512;BME280;73446;0.000;0.000;2024-02-04T08:48:14;99759.94;;;21.96;32.05
83512;BME280;73446;0.000;0.000;2024-02-04T08:50:58;99768.75;;;21.96;31.50
83512;BME280;73446;0.000;0.000;2024-02-04T08:53:42;99761.53;;;21.97;31.36
83512;BME280;73446;0.000;0.000;2024-02-04T08:56:26;99773.84;;;21.98;30.96
83512;BME280;73446;0.000;0.000;2024-02-04T08:59:10;99778.16;;;21.99;30.66
83512;BME280;73446;0.000;0.000;2024-02-04T09:01:54;99789.44;;;22.01;30.92
83512;BME280;73446;0.000;0.000;2024-02-04T09:04:38;99784.06;;;22.01;31.01
83512;BME280;73446;0.000;0.000;2024-02-04T09:07:24;99789.16;;;22.03;31.31
83512;BME280;73446;0.000;0.000;2024-02-04T09:10:08;99798.00;;;22.03;31.20
83512;BME280;73446;0.000;0.000;2024-02-04T09:12:52;99796.94;;;22.04;31.30
83512;BME280;73446;0.000;0.000;2024-02-04T09:15:37;99807.91;;;22.03;31.65
83512;BME280;73446;0.000;0.000;2024-02-04T09:18:23;99806.28;;;22.02;31.65
83512;BME280;73446;0.000;0.000;2024-02-04T09:21:07;99821.84;;;22.05;31.52
83512;BME280;73446;0.000;0.000;2024-02-04T09:23:51;99831.75;;;22.04;31.94
83512;BME280;73446;0.000;0.000;2024-02-04T09:26:36;99832.00;;;22.03;32.10
83512;BME280;73446;0.000;0.000;2024-02-04T09:29:20;99823.41;;;22.01;31.82
83512;BME280;73446;0.000;0.000;2024-02-04T09:32:05;99828.78;;;22.01;31.46
83512;BME280;73446;0.000;0.000;2024-02-04T09:34:49;99839.47;;;22.01;31.66
83512;BME280;73446;0.000;0.000;2024-02-04T09:37:33;99836.00;;;22.00;31.78
83512;BME280;73446;0.000;0.000;2024-02-04T09:40:17;99810.53;;;21.97;32.16
83512;BME280;73446;0.000;0.000;2024-02-04T09:43:01;99816.69;;;21.98;32.50
83512;BME280;73446;0.000;0.000;2024-02-04T09:45:46;99796.03;;;21.93;32.39
83512;BME280;73446;0.000;0.000;2024-02-04T09:48:33;99801.41;;;21.93;32.65
83512;BME280;73446;0.000;0.000;2024-02-04T09:51:17;99787.22;;;21.93;33.37
83512;BME280;73446;0.000;0.000;2024-02-04T09:54:04;99793.38;;;21.93;33.48
83512;BME280;73446;0.000;0.000;2024-02-04T09:56:51;99778.94;;;21.89;33.82
83512;BME280;73446;0.000;0.000;2024-02-04T09:59:35;99804.06;;;21.88;34.26
83512;BME280;73446;0.000;0.000;2024-02-04T10:02:20;99801.91;;;21.85;33.54
83512;BME280;73446;0.000;0.000;2024-02-04T10:05:04;99774.31;;;21.80;33.37
83512;BME280;73446;0.000;0.000;2024-02-04T10:07:49;99787.69;;;21.80;33.40
83512;BME280;73446;0.000;0.000;2024-02-04T10:10:33;99793.31;;;21.78;33.06
83512;BME280;73446;0.000;0.000;2024-02-04T10:13:17;99795.97;;;21.78;33.71
83512;BME280;73446;0.000;0.000;2024-02-04T10:16:01;99822.19;;;21.76;33.84
83512;BME280;73446;0.000;0.000;2024-02-04T10:18:47;99816.56;;;21.73;33.67
83512;BME280;73446;0.000;0.000;2024-02-04T10:21:33;99827.53;;;21.71;33.54
83512;BME280;73446;0.000;0.000;2024-02-04T10:24:16;99833.97;;;21.75;33.02
83512;BME280;73446;0.000;0.000;2024-02-04T10:27:01;99825.97;;;21.75;32.60
83512;BME280;73446;0.000;0.000;2024-02-04T10:29:45;99815.78;;;21.72;31.97
83512;BME280;73446;0.000;0.000;2024-02-04T10:32:30;99820.56;;;21.70;31.57
83512;BME280;73446;0.000;0.000;2024-02-04T10:35:14;99811.19;;;21.68;32.14
83512;BME280;73446;0.000;0.000;2024-02-04T10:37:59;99814.94;;;21.67;32.72
83512;BME280;73446;0.000;0.000;2024-02-04T10:40:44;99816.25;;;21.64;34.07
83512;BME280;73446;0.000;0.000;2024-02-04T10:43:33;99796.97;;;21.62;33.80
83512;BME280;73446;0.000;0.000;2024-02-04T10:46:22;99803.38;;;21.61;33.87
83512;BME280;73446;0.000;0.000;2024-02-04T10:49:09;99812.47;;;21.60;33.81
83512;BME280;73446;0.000;0.000;2024-02-04T10:51:58;99802.88;;;21.59;35.49
83512;BME280;73446;0.000;0.000;2024-02-04T10:54:44;99795.63;;;21.59;35.66
83512;BME280;73446;0.000;0.000;2024-02-04T10:57:28;99789.22;;;21.60;36.94
83512;BME280;73446;0.000;0.000;2024-02-04T11:00:15;99798.03;;;21.61;38.81
83512;BME280;73446;0.000;0.000;2024-02-04T11:03:01;99798.59;;;21.63;40.80
83512;BME280;73446;0.000;0.000;2024-02-04T11:05:46;99804.75;;;21.63;40.87
83512;BME280;73446;0.000;0.000;2024-02-04T11:08:31;99806.34;;;21.64;41.55
83512;BME280;73446;0.000;0.000;2024-02-04T11:11:16;99797.53;;;21.64;42.11
83512;BME280;73446;0.000;0.000;2024-02-04T11:14:02;99790.84;;;21.67;42.07
83512;BME280;73446;0.000;0.000;2024-02-04T11:17:07;99780.69;;;21.69;42.84
83512;BME280;73446;0.000;0.000;2024-02-04T11:26:29;99768.47;;;21.88;44.73
83512;BME280;73446;0.000;0.000;2024-02-04T11:29:14;99773.03;;;21.87;44.53
83512;BME280;73446;0.000;0.000;2024-02-04T11:31:58;99778.94;;;21.89;43.96
83512;BME280;73446;0.000;0.000;2024-02-04T11:34:44;99756.72;;;21.89;43.30
83512;BME280;73446;0.000;0.000;2024-02-04T11:37:29;99762.88;;;21.89;42.79
83512;BME280;73446;0.000;0.000;2024-02-04T11:40:16;99759.38;;;21.89;42.27
83512;BME280;73446;0.000;0.000;2024-02-04T11:43:07;99764.47;;;21.90;41.55
83512;BME280;73446;0.000;0.000;2024-02-04T11:45:52;99747.34;;;21.91;41.58
83512;BME280;73446;0.000;0.000;2024-02-04T11:48:40;99745.75;;;21.90;41.41
83512;BME280;73446;0.000;0.000;2024-02-04T11:51:24;99740.41;;;21.90;40.69
83512;BME280;73446;0.000;0.000;2024-02-04T11:54:11;99744.69;;;21.91;40.35
83512;BME280;73446;0.000;0.000;2024-02-04T11:56:58;99734.50;;;21.88;39.96
83512;BME280;73446;0.000;0.000;2024-02-04T11:59:42;99730.72;;;21.84;39.95
83512;BME280;73446;0.000;0.000;2024-02-04T12:02:27;99726.69;;;21.82;39.15
83512;BME280;73446;0.000;0.000;2024-02-04T12:05:13;99725.91;;;21.81;40.01
83512;BME280;73446;0.000;0.000;2024-02-04T12:07:59;99723.47;;;21.80;39.60
83512;BME280;73446;0.000;0.000;2024-02-04T12:10:43;99717.31;;;21.79;39.19
83512;BME280;73446;0.000;0.000;2024-02-04T12:13:27;99717.31;;;21.79;38.91
83512;BME280;73446;0.000;0.000;2024-02-04T12:16:12;99720.53;;;21.76;38.39
83512;BME280;73446;0.000;0.000;2024-02-04T12:18:56;99710.91;;;21.75;37.76
83512;BME280;73446;0.000;0.000;2024-02-04T12:21:40;99710.91;;;21.75;38.05
83512;BME280;73446;0.000;0.000;2024-02-04T12:24:24;99703.94;;;21.74;37.74
83512;BME280;73446;0.000;0.000;2024-02-04T12:27:08;99702.34;;;21.73;37.54
83512;BME280;73446;0.000;0.000;2024-02-04T12:29:52;99695.13;;;21.74;37.66
83512;BME280;73446;0.000;0.000;2024-02-04T12:32:37;99684.16;;;21.75;36.83
83512;BME280;73446;0.000;0.000;2024-02-04T12:35:21;99691.91;;;21.77;36.80
83512;BME280;73446;0.000;0.000;2024-02-04T12:38:05;99686.84;;;21.75;36.71
83512;BME280;73446;0.000;0.000;2024-02-04T12:40:51;99699.13;;;21.76;36.52
83512;BME280;73446;0.000;0.000;2024-02-04T12:43:35;99675.31;;;21.75;36.54
83512;BME280;73446;0.000;0.000;2024-02-04T12:46:21;99692.69;;;21.77;36.51
83512;BME280;73446;0.000;0.000;2024-02-04T12:49:08;99681.47;;;21.75;36.50
83512;BME280;73446;0.000;0.000;2024-02-04T12:51:52;99681.47;;;21.75;36.36
83512;BME280;73446;0.000;0.000;2024-02-04T12:54:43;99684.94;;;21.76;36.14
83512;BME280;73446;0.000;0.000;2024-02-04T12:57:27;99688.41;;;21.76;36.47
83512;BME280;73446;0.000;0.000;2024-02-04T13:00:12;99694.06;;;21.80;36.68
83512;BME280;73446;0.000;0.000;2024-02-04T13:02:56;99701.78;;;21.76;36.05
83512;BME280;73446;0.000;0.000;2024-02-04T13:05:40;99704.75;;;21.75;35.92
83512;BME280;73446;0.000;0.000;2024-02-04T13:08:24;99710.91;;;21.75;35.95
83512;BME280;73446;0.000;0.000;2024-02-04T13:11:09;99720.00;;;21.74;36.09
83512;BME280;73446;0.000;0.000;2024-02-04T13:13:53;99702.34;;;21.73;36.14
83512;BME280;73446;0.000;0.000;2024-02-04T13:16:38;99697.00;;;21.73;36.00
83512;BME280;73446;0.000;0.000;2024-02-04T13:19:22;99683.06;;;21.71;36.06
83512;BME280;73446;0.000;0.000;2024-02-04T13:22:06;99675.84;;;21.72;35.93
83512;BME280;73446;0.000;0.000;2024-02-04T13:24:53;99661.66;;;21.71;36.02
83512;BME280;73446;0.000;0.000;2024-02-04T13:27:37;99662.72;;;21.70;35.91
83512;BME280;73446;0.000;0.000;2024-02-04T13:30:22;99665.41;;;21.70;35.76
83512;BME280;73446;0.000;0.000;2024-02-04T13:33:06;99642.41;;;21.69;35.70
83512;BME280;73446;0.000;0.000;2024-02-04T13:35:50;99640.78;;;21.68;35.52
83512;BME280;73446;0.000;0.000;2024-02-04T13:38:35;99642.66;;;21.68;35.30
83512;BME280;73446;0.000;0.000;2024-02-04T13:41:19;99635.19;;;21.70;35.28
83512;BME280;73446;0.000;0.000;2024-02-04T13:44:03;99646.16;;;21.73;35.27
83512;BME280;73446;0.000;0.000;2024-02-04T13:46:48;99652.56;;;21.72;35.49
83512;BME280;73446;0.000;0.000;2024-02-04T13:49:32;99651.78;;;21.72;35.52
83512;BME280;73446;0.000;0.000;2024-02-04T13:52:16;99650.16;;;21.71;35.49
83512;BME280;73446;0.000;0.000;2024-02-04T13:55:00;99670.75;;;21.70;35.38
83512;BME280;73446;0.000;0.000;2024-02-04T13:57:44;99677.19;;;21.69;35.35
83512;BME280;73446;0.000;0.000;2024-02-04T14:00:28;99668.59;;;21.67;35.27
83512;BME280;73446;0.000;0.000;2024-02-04T14:03:12;99667.00;;;21.66;35.05
83512;BME280;73446;0.000;0.000;2024-02-04T14:05:56;99676.09;;;21.65;34.88
83512;BME280;73446;0.000;0.000;2024-02-04T14:08:41;99668.31;;;21.63;35.15
83512;BME280;73446;0.000;0.000;2024-02-04T14:11:25;99673.13;;;21.61;35.55
83512;BME280;73446;0.000;0.000;2024-02-04T14:14:09;99670.72;;;21.60;35.92
83512;BME280;73446;0.000;0.000;2024-02-04T14:16:53;99679.81;;;21.59;36.11
83512;BME280;73446;0.000;0.000;2024-02-04T14:19:37;99683.56;;;21.58;36.80
83512;BME280;73446;0.000;0.000;2024-02-04T14:22:21;99681.94;;;21.62;37.30
83512;BME280;73446;0.000;0.000;2024-02-04T14:25:06;99683.31;;;21.64;38.72
83512;BME280;73446;0.000;0.000;2024-02-04T14:27:50;99704.19;;;21.68;39.49
83512;BME280;73446;0.000;0.000;2024-02-04T14:30:34;99702.88;;;21.70;40.31
83512;BME280;73446;0.000;0.000;2024-02-04T14:33:18;99698.06;;;21.72;40.49
83512;BME280;73446;0.000;0.000;2024-02-04T14:36:03;99705.03;;;21.73;40.99
83512;BME280;73446;0.000;0.000;2024-02-04T14:38:47;99707.44;;;21.75;40.95
83512;BME280;73446;0.000;0.000;2024-02-04T14:41:35;99717.03;;;21.76;40.63
83512;BME280;73446;0.000;0.000;2024-02-04T14:44:20;99712.50;;;21.76;40.82
83512;BME280;73446;0.000;0.000;2024-02-04T14:47:04;99715.47;;;21.75;40.95
83512;BME280;73446;0.000;0.000;2024-02-04T14:49:48;99710.91;;;21.75;40.40
83512;BME280;73446;0.000;0.000;2024-02-04T14:52:32;99720.25;;;21.73;39.89
83512;BME280;73446;0.000;0.000;2024-02-04T14:55:16;99709.28;;;21.69;40.07